Time;durP1;ratioP1;P1;durP2;ratioP2;P2;SDS_P1;SDS_P2;PMS_P1;PMS_P2;Temp;Humidity;BMP_temperature;BMP_pressure;BME280_temperature;BME280_humidity;BME280_pressure;Samples;Min_cycle;Max_cycle;Signal;HPM_P1;HPM_P2
2021/04/24 00:00:29;;;;;;;11.43;6.17;;;5.20;94.20;;;;;;4163838;28;20832;-83
2021/04/24 00:02:31;;;;;;;10.53;6.30;;;5.20;94.30;;;;;;4161098;28;20469;-84
2021/04/24 00:04:32;;;;;;;10.83;6.00;;;5.10;94.40;;;;;;4162263;28;20468;-84
2021/04/24 00:06:34;;;;;;;12.60;6.03;;;5.10;94.50;;;;;;4163931;28;20473;-84
2021/04/24 00:08:37;;;;;;;16.27;6.17;;;5.10;94.70;;;;;;4165567;28;20489;-84
2021/04/24 00:10:40;;;;;;;13.60;5.63;;;5.00;94.80;;;;;;4163892;28;20462;-84
2021/04/24 00:12:43;;;;;;;12.73;5.83;;;5.00;94.80;;;;;;4159162;28;20473;-84
2021/04/24 00:14:47;;;;;;;11.13;5.60;;;5.00;94.80;;;;;;4168115;28;21233;-84
2021/04/24 00:16:48;;;;;;;9.70;5.50;;;4.90;94.90;;;;;;4161330;28;20967;-84
2021/04/24 00:18:50;;;;;;;12.63;5.90;;;4.90;94.90;;;;;;4164700;28;20465;-83
2021/04/24 00:20:51;;;;;;;13.17;5.80;;;4.80;94.90;;;;;;4162874;28;20464;-83
2021/04/24 00:22:56;;;;;;;9.80;5.50;;;4.80;95.10;;;;;;4163509;28;20888;-83
2021/04/24 00:24:58;;;;;;;14.50;6.07;;;4.80;95.20;;;;;;4162770;28;20470;-83
2021/04/24 00:27:00;;;;;;;14.50;5.70;;;4.80;95.30;;;;;;4164794;28;20494;-81
2021/04/24 00:29:01;;;;;;;14.43;5.83;;;4.70;95.30;;;;;;4165944;28;20462;-83
2021/04/24 00:31:02;;;;;;;10.97;5.67;;;4.70;95.40;;;;;;4171140;28;20469;-82
2021/04/24 00:33:04;;;;;;;12.07;6.27;;;4.70;95.80;;;;;;4168324;28;20579;-82
2021/04/24 00:35:07;;;;;;;15.90;6.03;;;4.70;95.50;;;;;;4165989;28;20952;-83
2021/04/24 00:37:09;;;;;;;10.17;5.30;;;4.60;95.50;;;;;;4163898;28;20493;-82
2021/04/24 00:39:11;;;;;;;11.20;5.27;;;4.60;95.50;;;;;;4163843;28;20469;-84
2021/04/24 00:41:18;;;;;;;8.70;4.80;;;4.50;95.50;;;;;;4164301;28;20441;-83
2021/04/24 00:43:22;;;;;;;9.90;4.83;;;4.50;95.60;;;;;;4164725;28;21350;-83
2021/04/24 00:45:25;;;;;;;9.20;4.93;;;4.50;95.70;;;;;;4163110;28;20478;-82
2021/04/24 00:47:29;;;;;;;11.10;5.00;;;4.50;95.80;;;;;;4163889;28;20561;-83
2021/04/24 00:49:33;;;;;;;10.63;5.10;;;4.40;95.80;;;;;;4164942;28;20434;-82
2021/04/24 00:51:35;;;;;;;9.43;4.30;;;4.40;95.80;;;;;;4164494;28;20466;-83
2021/04/24 00:53:37;;;;;;;8.00;4.10;;;4.30;95.90;;;;;;4156607;28;21138;-83
2021/04/24 00:55:41;;;;;;;9.30;4.93;;;4.30;95.90;;;;;;4156282;28;20834;-83
2021/04/24 00:57:45;;;;;;;9.93;4.67;;;4.30;96.00;;;;;;4164034;28;20516;-82
2021/04/24 00:59:48;;;;;;;9.60;4.63;;;4.40;96.10;;;;;;4159796;28;20473;-82
2021/04/24 01:01:50;;;;;;;10.60;5.20;;;4.30;96.10;;;;;;4164097;28;20461;-82
2021/04/24 01:03:51;;;;;;;11.87;5.40;;;4.20;96.30;;;;;;4165441;28;20497;-83
2021/04/24 01:05:52;;;;;;;11.63;4.93;;;4.20;96.50;;;;;;4149936;28;20467;-83
2021/04/24 01:07:54;;;;;;;8.87;4.57;;;4.20;96.50;;;;;;4162993;28;20572;-83
2021/04/24 01:09:55;;;;;;;10.93;4.90;;;4.20;96.50;;;;;;4166677;28;20495;-81
2021/04/24 01:12:10;;;;;;;10.00;4.87;;;4.10;96.50;;;;;;4160737;28;20497;-83
2021/04/24 01:14:12;;;;;;;10.10;4.93;;;4.10;96.50;;;;;;4153750;28;20478;-83
2021/04/24 01:16:13;;;;;;;10.07;4.90;;;4.10;96.70;;;;;;4159034;28;20549;-83
2021/04/24 01:18:15;;;;;;;10.20;4.60;;;4.10;96.70;;;;;;4157944;28;20494;-83
2021/04/24 01:20:19;;;;;;;11.43;4.87;;;4.00;96.80;;;;;;4164593;28;20485;-83
2021/04/24 01:22:22;;;;;;;10.03;4.70;;;4.00;96.80;;;;;;4158531;28;20458;-82
2021/04/24 01:24:24;;;;;;;9.37;4.30;;;4.00;96.90;;;;;;4159492;28;20486;-83
2021/04/24 01:26:25;;;;;;;12.53;4.70;;;3.90;96.90;;;;;;4161124;28;20457;-83
2021/04/24 01:28:27;;;;;;;12.80;4.53;;;4.00;96.90;;;;;;4159759;28;20544;-83
2021/04/24 01:30:31;;;;;;;7.77;4.63;;;3.90;97.00;;;;;;4146949;28;20524;-83
2021/04/24 01:32:33;;;;;;;9.33;5.20;;;3.90;97.10;;;;;;4156053;28;20501;-83
2021/04/24 01:34:34;;;;;;;9.20;4.70;;;3.90;97.10;;;;;;4166127;28;20465;-83
2021/04/24 01:36:36;;;;;;;9.47;5.07;;;3.90;97.20;;;;;;4167296;28;20458;-83
2021/04/24 01:38:38;;;;;;;8.40;4.37;;;3.80;97.20;;;;;;4157941;28;20478;-83
2021/04/24 01:40:40;;;;;;;10.70;4.67;;;3.80;97.20;;;;;;4151120;28;20470;-82
2021/04/24 01:42:42;;;;;;;11.93;5.13;;;3.80;97.20;;;;;;4157585;28;20546;-83
2021/04/24 01:44:45;;;;;;;11.37;4.63;;;3.70;97.30;;;;;;4163382;28;20473;-83
2021/04/24 01:46:47;;;;;;;8.90;4.40;;;3.70;97.30;;;;;;4150335;28;20478;-83
2021/04/24 01:48:49;;;;;;;9.63;4.53;;;3.70;97.40;;;;;;4158169;28;20478;-84
2021/04/24 01:50:50;;;;;;;10.63;4.80;;;3.70;97.50;;;;;;4162121;28;20478;-83
2021/04/24 01:52:53;;;;;;;11.97;4.40;;;3.70;97.50;;;;;;4163977;28;20503;-83
2021/04/24 01:54:55;;;;;;;10.57;4.20;;;3.60;97.60;;;;;;4148306;28;20464;-83
2021/04/24 01:56:58;;;;;;;7.23;4.00;;;3.60;97.60;;;;;;4165247;28;20508;-83
2021/04/24 01:59:00;;;;;;;11.17;4.23;;;3.60;97.70;;;;;;4167097;28;20465;-83
2021/04/24 02:01:05;;;;;;;7.23;3.90;;;3.60;97.70;;;;;;4166189;28;20477;-83
2021/04/24 02:03:10;;;;;;;10.73;4.00;;;3.60;97.70;;;;;;4167871;28;20477;-83
2021/04/24 02:05:14;;;;;;;9.27;4.20;;;3.50;97.70;;;;;;4152950;28;20451;-82
2021/04/24 02:07:15;;;;;;;7.20;3.97;;;3.50;97.70;;;;;;4166991;28;21067;-83
2021/04/24 02:09:21;;;;;;;7.23;3.70;;;3.40;97.70;;;;;;4169931;28;20457;-83
2021/04/24 02:11:23;;;;;;;6.13;3.40;;;3.40;97.80;;;;;;4170699;28;20472;-83
2021/04/24 02:13:28;;;;;;;8.23;4.03;;;3.30;97.90;;;;;;4166101;28;20954;-83
2021/04/24 02:15:29;;;;;;;7.07;3.50;;;3.30;98.00;;;;;;4163036;28;20461;-83
2021/04/24 02:17:31;;;;;;;9.20;3.97;;;3.30;98.00;;;;;;4161768;28;20480;-83
2021/04/24 02:19:36;;;;;;;7.53;3.87;;;3.20;98.10;;;;;;4157801;28;20461;-83
2021/04/24 02:21:37;;;;;;;9.77;4.37;;;3.20;98.30;;;;;;4168675;28;20510;-82
2021/04/24 02:23:39;;;;;;;10.20;4.87;;;3.20;98.40;;;;;;4164144;28;20497;-82
2021/04/24 02:25:41;;;;;;;11.23;4.40;;;3.20;98.60;;;;;;4168819;28;20462;-82
2021/04/24 02:27:43;;;;;;;10.57;4.60;;;3.20;98.60;;;;;;4157263;28;20569;-83
2021/04/24 02:29:46;;;;;;;8.23;4.20;;;3.20;98.60;;;;;;4168838;28;20484;-83
2021/04/24 02:31:47;;;;;;;8.97;4.40;;;3.10;98.60;;;;;;4168473;28;20470;-82
2021/04/24 02:33:48;;;;;;;8.93;4.33;;;3.10;98.60;;;;;;4169881;28;20777;-82
2021/04/24 02:35:55;;;;;;;7.70;3.77;;;3.00;98.60;;;;;;4156607;28;20935;-82
2021/04/24 02:37:56;;;;;;;10.90;4.43;;;3.00;98.70;;;;;;4153334;28;20482;-82
2021/04/24 02:39:57;;;;;;;7.60;4.47;;;3.00;98.90;;;;;;4156799;28;20477;-82
2021/04/24 02:42:00;;;;;;;11.43;4.13;;;3.00;99.00;;;;;;4168273;28;20491;-82
2021/04/24 02:44:02;;;;;;;7.60;3.87;;;3.00;99.10;;;;;;4168141;28;20494;-82
2021/04/24 02:46:07;;;;;;;7.00;3.53;;;2.90;99.10;;;;;;4153702;28;20995;-83
2021/04/24 02:48:09;;;;;;;8.30;3.80;;;2.90;99.10;;;;;;4164712;28;21001;-82
2021/04/24 02:50:15;;;;;;;9.53;4.07;;;2.90;99.20;;;;;;4159969;28;20497;-83
2021/04/24 02:52:17;;;;;;;8.50;4.10;;;2.90;99.20;;;;;;4169771;28;20469;-82
2021/04/24 02:54:19;;;;;;;8.20;3.97;;;2.80;99.30;;;;;;4169539;28;20935;-82
2021/04/24 02:56:20;;;;;;;9.60;3.90;;;2.80;99.40;;;;;;4164983;28;20465;-81
2021/04/24 02:58:21;;;;;;;10.30;4.40;;;2.70;99.40;;;;;;4200920;22;20534;-79
2021/04/24 03:00:24;;;;;;;9.90;3.90;;;2.70;99.50;;;;;;4172251;28;20461;-78
2021/04/24 03:02:25;;;;;;;10.20;4.10;;;2.70;99.60;;;;;;4177064;28;20755;-75
2021/04/24 03:04:27;;;;;;;8.57;4.30;;;2.60;99.70;;;;;;4179166;28;20488;-78
2021/04/24 03:06:28;;;;;;;8.87;4.20;;;2.60;99.80;;;;;;4165231;28;20478;-79
2021/04/24 03:08:29;;;;;;;9.50;4.43;;;2.60;99.90;;;;;;4180463;28;20480;-75
2021/04/24 03:10:31;;;;;;;10.40;4.27;;;2.50;99.90;;;;;;4161376;28;20458;-76
2021/04/24 03:12:33;;;;;;;11.53;5.03;;;2.50;99.90;;;;;;4162514;28;20461;-75
2021/04/24 03:14:34;;;;;;;9.80;4.47;;;2.50;99.90;;;;;;4164468;28;20474;-76
2021/04/24 03:16:37;;;;;;;10.87;4.67;;;2.50;99.90;;;;;;4165668;28;20466;-75
2021/04/24 03:18:39;;;;;;;15.23;4.13;;;2.50;99.90;;;;;;4170050;28;20535;-76
2021/04/24 03:20:40;;;;;;;7.40;4.20;;;2.40;99.90;;;;;;4162875;28;20907;-75
2021/04/24 03:22:42;;;;;;;9.33;3.93;;;2.50;99.90;;;;;;4163449;28;20472;-76
2021/04/24 03:24:43;;;;;;;8.97;4.03;;;2.40;99.90;;;;;;4159413;28;20884;-76
2021/04/24 03:26:44;;;;;;;9.13;4.13;;;2.40;99.90;;;;;;4163628;28;20844;-76
2021/04/24 03:28:46;;;;;;;8.17;4.10;;;2.40;99.90;;;;;;4162944;28;20465;-76
2021/04/24 03:30:47;;;;;;;6.80;3.60;;;2.40;99.90;;;;;;4153999;28;20532;-76
2021/04/24 03:32:49;;;;;;;8.90;3.80;;;2.40;99.90;;;;;;4146494;28;20868;-76
2021/04/24 03:34:50;;;;;;;9.07;3.50;;;2.40;99.90;;;;;;4153740;28;20463;-76
2021/04/24 03:36:51;;;;;;;9.73;3.60;;;2.30;99.90;;;;;;4163392;28;20465;-76
2021/04/24 03:38:53;;;;;;;9.27;3.63;;;2.40;99.90;;;;;;4157969;28;20960;-76
2021/04/24 03:40:54;;;;;;;7.23;3.30;;;2.40;99.90;;;;;;4148110;28;20546;-76
2021/04/24 03:42:55;;;;;;;8.80;3.70;;;2.30;99.90;;;;;;4147747;28;20462;-76
2021/04/24 03:44:57;;;;;;;6.80;3.57;;;2.30;99.90;;;;;;4165251;28;20476;-76
2021/04/24 03:46:58;;;;;;;6.97;3.77;;;2.30;99.90;;;;;;4174579;28;20459;-77
2021/04/24 03:49:00;;;;;;;7.33;3.67;;;2.30;99.90;;;;;;4171247;28;20516;-77
2021/04/24 03:51:02;;;;;;;7.87;3.83;;;2.30;99.90;;;;;;4165841;28;20476;-77
2021/04/24 03:53:04;;;;;;;8.37;3.33;;;2.20;99.90;;;;;;4151687;28;20971;-77
2021/04/24 03:55:06;;;;;;;7.57;3.47;;;2.20;99.90;;;;;;4151497;28;20477;-77
2021/04/24 03:57:07;;;;;;;6.17;2.97;;;2.20;99.90;;;;;;4161105;28;20489;-77
2021/04/24 03:59:09;;;;;;;7.17;3.50;;;2.10;99.90;;;;;;4162191;28;20477;-76
2021/04/24 04:01:10;;;;;;;7.90;3.13;;;2.20;99.90;;;;;;4153267;28;20481;-77
2021/04/24 04:03:11;;;;;;;5.63;3.23;;;2.20;99.90;;;;;;4161727;28;20993;-76
2021/04/24 04:05:15;;;;;;;6.10;3.17;;;2.10;99.90;;;;;;4151788;28;20570;-76
2021/04/24 04:07:16;;;;;;;5.93;3.10;;;2.10;99.90;;;;;;4156472;28;20480;-77
2021/04/24 04:09:17;;;;;;;7.40;3.30;;;2.10;99.90;;;;;;4161014;28;20520;-77
2021/04/24 04:11:18;;;;;;;5.73;3.10;;;2.10;99.90;;;;;;4162891;28;20536;-77
2021/04/24 04:13:20;;;;;;;6.87;3.03;;;2.10;99.90;;;;;;4169150;28;20494;-77
2021/04/24 04:15:23;;;;;;;6.37;3.00;;;2.10;99.90;;;;;;4166604;28;20946;-77
2021/04/24 04:17:25;;;;;;;6.67;3.20;;;2.10;99.90;;;;;;4159658;28;21028;-77
2021/04/24 04:19:26;;;;;;;7.80;3.10;;;2.20;99.90;;;;;;4162520;28;20464;-77
2021/04/24 04:21:28;;;;;;;8.30;3.00;;;2.10;99.90;;;;;;4146771;28;20532;-77
2021/04/24 04:23:29;;;;;;;6.70;3.40;;;2.10;99.90;;;;;;4145783;28;20498;-77
2021/04/24 04:25:30;;;;;;;6.97;3.50;;;2.10;99.90;;;;;;4147286;28;20542;-77
2021/04/24 04:27:31;;;;;;;6.37;3.20;;;2.10;99.90;;;;;;4158883;28;20554;-77
2021/04/24 04:29:33;;;;;;;7.67;3.70;;;2.20;99.90;;;;;;4161484;28;20954;-77
2021/04/24 04:31:34;;;;;;;10.97;4.47;;;2.20;99.90;;;;;;4146709;28;20454;-76
2021/04/24 04:33:35;;;;;;;10.23;4.73;;;2.20;99.90;;;;;;4145522;28;20459;-77
2021/04/24 04:35:38;;;;;;;10.77;4.20;;;2.20;99.90;;;;;;4146211;28;20478;-77
2021/04/24 04:37:40;;;;;;;8.73;3.93;;;2.30;99.90;;;;;;4160638;28;20915;-77
2021/04/24 04:39:42;;;;;;;9.20;4.63;;;2.30;99.90;;;;;;4161968;28;20450;-77
2021/04/24 04:41:43;;;;;;;10.93;4.20;;;2.30;99.90;;;;;;4146012;28;20450;-77
2021/04/24 04:43:44;;;;;;;8.73;4.17;;;2.30;99.90;;;;;;4148532;28;20499;-77
2021/04/24 04:45:46;;;;;;;8.17;4.23;;;2.40;99.90;;;;;;4161387;28;20474;-77
2021/04/24 04:47:48;;;;;;;8.30;3.90;;;2.40;99.90;;;;;;4162292;28;20477;-76
2021/04/24 04:49:49;;;;;;;9.80;4.03;;;2.40;99.90;;;;;;4158552;28;20476;-77
2021/04/24 04:51:51;;;;;;;10.40;4.57;;;2.40;99.90;;;;;;4162465;28;20668;-77
2021/04/24 04:53:53;;;;;;;6.17;3.57;;;2.50;99.90;;;;;;4151958;28;20814;-77
2021/04/24 04:55:54;;;;;;;10.70;4.40;;;2.50;99.90;;;;;;4158161;28;20945;-77
2021/04/24 04:57:56;;;;;;;8.17;3.97;;;2.50;99.90;;;;;;4159362;28;20492;-77
2021/04/24 04:59:57;;;;;;;7.93;3.67;;;2.60;99.90;;;;;;4161943;28;20469;-77
2021/04/24 05:01:59;;;;;;;8.67;3.80;;;2.60;99.90;;;;;;4152826;28;20469;-77
2021/04/24 05:04:00;;;;;;;8.17;4.00;;;2.70;99.90;;;;;;4146536;28;20962;-77
2021/04/24 05:06:01;;;;;;;7.67;3.90;;;2.70;99.90;;;;;;4146640;28;20466;-77
2021/04/24 05:08:03;;;;;;;8.17;4.30;;;2.80;99.90;;;;;;4149225;28;21018;-77
2021/04/24 05:10:06;;;;;;;6.90;3.77;;;2.80;99.90;;;;;;4158349;28;20478;-77
2021/04/24 05:12:08;;;;;;;8.40;4.23;;;2.80;99.90;;;;;;4165450;28;20465;-77
2021/04/24 05:14:09;;;;;;;10.73;4.17;;;2.90;99.90;;;;;;4164362;28;20453;-78
2021/04/24 05:16:11;;;;;;;8.43;3.83;;;2.90;99.90;;;;;;4168695;28;20958;-77
2021/04/24 05:18:12;;;;;;;8.63;3.97;;;3.00;99.90;;;;;;4152888;28;21018;-78
2021/04/24 05:20:14;;;;;;;7.57;3.60;;;2.90;99.90;;;;;;4160223;28;20457;-78
2021/04/24 05:22:16;;;;;;;8.47;3.93;;;3.00;99.90;;;;;;4149920;28;20560;-77
2021/04/24 05:24:17;;;;;;;10.70;4.03;;;3.00;99.90;;;;;;4164848;28;21016;-75
2021/04/24 05:26:19;;;;;;;9.77;3.80;;;3.00;99.90;;;;;;4160203;28;20509;-75
2021/04/24 05:28:21;;;;;;;7.87;4.10;;;3.00;99.90;;;;;;4162847;28;20865;-76
2021/04/24 05:30:22;;;;;;;7.73;3.80;;;3.00;99.90;;;;;;4171947;28;20462;-76
2021/04/24 05:32:23;;;;;;;10.97;4.20;;;3.10;99.90;;;;;;4176218;28;20476;-77
2021/04/24 05:34:25;;;;;;;8.27;3.70;;;3.20;99.90;;;;;;4179008;28;20458;-76
2021/04/24 05:36:26;;;;;;;7.27;3.93;;;3.20;99.90;;;;;;4161528;28;20524;-76
2021/04/24 05:38:28;;;;;;;11.67;4.37;;;3.30;99.90;;;;;;4163118;28;20475;-76
2021/04/24 05:40:29;;;;;;;9.53;4.17;;;3.30;99.90;;;;;;4164452;28;20961;-76
2021/04/24 05:42:31;;;;;;;10.67;4.27;;;3.40;99.90;;;;;;4165818;28;20858;-76
2021/04/24 05:44:33;;;;;;;12.47;5.27;;;3.50;99.90;;;;;;4155004;28;20497;-76
2021/04/24 05:46:34;;;;;;;11.10;4.87;;;3.60;99.90;;;;;;4148881;28;20553;-76
2021/04/24 05:48:38;;;;;;;10.47;4.37;;;3.70;99.90;;;;;;4157599;28;20912;-76
2021/04/24 05:50:39;;;;;;;12.23;4.80;;;3.90;99.90;;;;;;4162422;28;20466;-76
2021/04/24 05:52:41;;;;;;;10.43;4.70;;;4.00;99.90;;;;;;4148672;28;20502;-76
2021/04/24 05:54:43;;;;;;;12.50;4.77;;;4.10;99.90;;;;;;4162784;28;20465;-77
2021/04/24 05:56:44;;;;;;;11.90;5.10;;;4.30;99.90;;;;;;4163243;28;20588;-77
2021/04/24 05:58:48;;;;;;;14.47;6.43;;;4.40;99.90;;;;;;4166512;28;20935;-76
2021/04/24 06:00:49;;;;;;;14.73;5.00;;;4.50;99.90;;;;;;4163413;28;20476;-77
2021/04/24 06:02:50;;;;;;;11.43;5.50;;;4.60;99.90;;;;;;4163885;28;20461;-76
2021/04/24 06:04:52;;;;;;;17.57;5.63;;;4.70;99.80;;;;;;4158661;28;20544;-77
2021/04/24 06:06:53;;;;;;;14.90;5.57;;;4.80;99.60;;;;;;4151276;28;20478;-76
2021/04/24 06:08:54;;;;;;;17.13;5.83;;;4.80;99.60;;;;;;4148040;28;20482;-76
2021/04/24 06:10:55;;;;;;;15.07;5.90;;;4.90;99.60;;;;;;4152605;28;20468;-76
2021/04/24 06:12:56;;;;;;;10.33;5.50;;;5.00;99.40;;;;;;4167751;28;20801;-77
2021/04/24 06:14:59;;;;;;;15.07;5.97;;;5.10;99.20;;;;;;4164999;28;20521;-77
2021/04/24 06:17:00;;;;;;;9.67;4.63;;;5.20;99.00;;;;;;4165267;28;20462;-76
2021/04/24 06:19:01;;;;;;;19.27;6.27;;;5.20;98.90;;;;;;4159745;28;20477;-77
2021/04/24 06:21:03;;;;;;;17.27;6.00;;;5.30;98.90;;;;;;4171652;28;20565;-77
2021/04/24 06:23:05;;;;;;;13.47;5.90;;;5.30;98.80;;;;;;4163391;28;20563;-77
2021/04/24 06:25:08;;;;;;;16.57;6.13;;;5.40;98.80;;;;;;4157656;28;20466;-77
2021/04/24 06:27:09;;;;;;;16.00;6.37;;;5.50;98.80;;;;;;4150700;28;20497;-77
2021/04/24 06:29:10;;;;;;;14.40;6.50;;;5.60;98.70;;;;;;4161424;28;20468;-76
2021/04/24 06:31:12;;;;;;;14.60;6.20;;;5.80;98.40;;;;;;4167122;28;20475;-76
2021/04/24 06:33:13;;;;;;;14.27;5.60;;;5.80;97.90;;;;;;4165413;28;20951;-77
2021/04/24 06:35:16;;;;;;;13.83;5.87;;;5.90;97.90;;;;;;4156148;28;20503;-76
2021/04/24 06:37:18;;;;;;;13.80;6.00;;;5.80;97.70;;;;;;4151675;28;20563;-77
2021/04/24 06:39:20;;;;;;;14.33;5.33;;;5.80;97.70;;;;;;4164652;28;20475;-77
2021/04/24 06:41:21;;;;;;;18.03;6.53;;;5.90;97.70;;;;;;4149242;28;20513;-77
2021/04/24 06:43:23;;;;;;;13.50;5.60;;;5.90;97.70;;;;;;4163959;28;20498;-77
2021/04/24 06:45:24;;;;;;;13.93;6.23;;;6.00;97.70;;;;;;4156906;28;20941;-77
2021/04/24 06:47:26;;;;;;;12.13;5.60;;;6.10;97.60;;;;;;4160591;28;20528;-77
2021/04/24 06:49:27;;;;;;;12.80;6.03;;;6.10;97.50;;;;;;4159343;28;20840;-77
2021/04/24 06:51:28;;;;;;;18.63;6.37;;;6.20;97.40;;;;;;4146990;28;21092;-77
2021/04/24 06:53:30;;;;;;;13.23;5.63;;;6.20;97.30;;;;;;4161717;28;20467;-77
2021/04/24 06:55:31;;;;;;;13.67;6.10;;;6.30;97.30;;;;;;4153564;28;20468;-77
2021/04/24 06:57:32;;;;;;;11.90;6.20;;;6.30;97.30;;;;;;4146322;28;20500;-77
2021/04/24 06:59:34;;;;;;;17.20;6.10;;;6.40;97.10;;;;;;4150427;28;20499;-77
2021/04/24 07:01:35;;;;;;;13.80;6.27;;;6.40;96.90;;;;;;4159275;28;20456;-77
2021/04/24 07:03:37;;;;;;;17.50;6.43;;;6.50;96.90;;;;;;4160832;28;20496;-77
2021/04/24 07:05:38;;;;;;;10.63;5.40;;;6.60;96.80;;;;;;4146611;28;20468;-77
2021/04/24 07:07:41;;;;;;;17.80;6.57;;;6.60;96.70;;;;;;4159160;28;20500;-77
2021/04/24 07:09:42;;;;;;;14.53;5.90;;;6.70;96.60;;;;;;4146871;28;20835;-76
2021/04/24 07:11:43;;;;;;;15.63;6.73;;;6.80;96.60;;;;;;4154374;28;20486;-76
2021/04/24 07:13:44;;;;;;;15.60;6.27;;;6.80;96.40;;;;;;4164453;28;20472;-77
2021/04/24 07:15:46;;;;;;;16.17;6.30;;;6.90;96.40;;;;;;4166263;28;20465;-77
2021/04/24 07:17:47;;;;;;;13.93;5.83;;;7.00;96.20;;;;;;4152360;28;20474;-77
2021/04/24 07:19:49;;;;;;;13.43;6.00;;;7.10;95.90;;;;;;4163924;28;20464;-77
2021/04/24 07:21:51;;;;;;;14.40;5.90;;;7.10;95.60;;;;;;4164377;28;20480;-77
2021/04/24 07:23:52;;;;;;;13.83;6.40;;;7.20;95.50;;;;;;4160025;28;20493;-77
2021/04/24 07:25:54;;;;;;;12.93;5.43;;;7.30;95.30;;;;;;4163058;28;20465;-77
2021/04/24 07:27:55;;;;;;;14.23;6.27;;;7.40;95.30;;;;;;4164349;28;20510;-77
2021/04/24 07:29:56;;;;;;;13.50;6.47;;;7.50;95.10;;;;;;4163660;28;20465;-77
2021/04/24 07:31:57;;;;;;;13.07;6.30;;;7.50;95.00;;;;;;4164710;28;20968;-77
2021/04/24 07:34:00;;;;;;;16.90;5.90;;;7.60;94.90;;;;;;4164528;28;20459;-77
2021/04/24 07:36:02;;;;;;;13.13;6.47;;;7.60;94.70;;;;;;4155691;28;20465;-78
2021/04/24 07:38:10;;;;;;;13.10;5.90;;;7.50;94.60;;;;;;4166211;28;20469;-78
2021/04/24 07:40:13;;;;;;;13.40;5.87;;;7.50;94.70;;;;;;4169727;28;21116;-78
2021/04/24 07:42:15;;;;;;;15.30;6.07;;;7.50;94.60;;;;;;4175045;28;20488;-78
2021/04/24 07:44:17;;;;;;;12.87;5.93;;;7.40;94.60;;;;;;4170490;28;20500;-79
2021/04/24 07:46:18;;;;;;;13.47;6.00;;;7.50;94.70;;;;;;4160523;28;20797;-79
2021/04/24 07:48:20;;;;;;;19.30;6.43;;;7.60;94.40;;;;;;4160866;28;20546;-78
2021/04/24 07:50:21;;;;;;;16.53;5.20;;;7.60;94.00;;;;;;4161046;28;20472;-79
2021/04/24 07:52:23;;;;;;;11.70;5.10;;;7.60;94.00;;;;;;4161971;28;20469;-80
2021/04/24 07:54:24;;;;;;;9.70;5.20;;;7.80;94.00;;;;;;4164880;28;20460;-79
2021/04/24 07:56:25;;;;;;;13.57;5.60;;;7.90;93.90;;;;;;4160106;28;20465;-79
2021/04/24 07:58:26;;;;;;;13.93;5.97;;;8.00;93.60;;;;;;4159918;28;20490;-79
2021/04/24 08:00:28;;;;;;;13.70;5.93;;;8.00;93.30;;;;;;4163390;28;20515;-79
2021/04/24 08:02:29;;;;;;;13.23;6.03;;;8.10;93.30;;;;;;4162268;28;20484;-79
2021/04/24 08:04:30;;;;;;;14.07;5.90;;;8.20;93.10;;;;;;4169633;28;20522;-79
2021/04/24 08:06:31;;;;;;;12.43;5.33;;;8.30;92.90;;;;;;4173573;28;20458;-79
2021/04/24 08:08:33;;;;;;;12.50;5.67;;;8.40;92.80;;;;;;4177244;28;20487;-79
2021/04/24 08:10:34;;;;;;;11.80;5.77;;;8.50;92.10;;;;;;4179114;28;20469;-80
2021/04/24 08:12:36;;;;;;;12.87;5.37;;;8.50;92.10;;;;;;4178019;28;20511;-79
2021/04/24 08:14:37;;;;;;;12.63;4.90;;;8.60;91.80;;;;;;4165534;28;20450;-79
2021/04/24 08:16:38;;;;;;;12.90;5.10;;;8.70;91.80;;;;;;4163924;28;20527;-79
2021/04/24 08:18:40;;;;;;;11.80;5.10;;;8.80;91.40;;;;;;4163337;28;20839;-79
2021/04/24 08:20:41;;;;;;;12.43;4.63;;;8.80;90.80;;;;;;4162173;28;20460;-80
2021/04/24 08:22:43;;;;;;;9.37;4.83;;;8.90;90.70;;;;;;4163009;28;20454;-80
2021/04/24 08:24:45;;;;;;;12.33;5.17;;;8.80;90.80;;;;;;4163178;28;20490;-79
2021/04/24 08:26:46;;;;;;;10.40;4.90;;;8.90;90.70;;;;;;4163899;28;20214;-79
2021/04/24 08:28:47;;;;;;;9.40;5.07;;;9.10;90.30;;;;;;4159889;28;20935;-80
2021/04/24 08:30:48;;;;;;;9.63;4.63;;;9.10;90.00;;;;;;4167492;28;20214;-78
2021/04/24 08:32:50;;;;;;;7.50;4.00;;;9.20;89.00;;;;;;4183035;28;20201;-79
2021/04/24 08:34:52;;;;;;;9.63;4.30;;;9.20;87.70;;;;;;4181264;28;20214;-79
2021/04/24 08:36:53;;;;;;;8.67;4.50;;;9.30;87.80;;;;;;4179704;28;20208;-79
2021/04/24 08:38:55;;;;;;;8.50;4.63;;;9.40;87.80;;;;;;4175196;28;20458;-79
2021/04/24 08:40:57;;;;;;;8.33;4.20;;;9.60;86.10;;;;;;4164619;28;20211;-79
2021/04/24 08:43:02;;;;;;;12.03;4.90;;;9.80;84.80;;;;;;4167144;28;20218;-79
2021/04/24 08:45:13;;;;;;;9.20;4.13;;;9.90;81.90;;;;;;4165369;28;20223;-79
2021/04/24 08:47:16;;;;;;;10.43;4.10;;;9.90;81.00;;;;;;4162172;28;20733;-79
2021/04/24 08:49:19;;;;;;;8.83;4.23;;;9.90;80.30;;;;;;4171172;28;20203;-79
2021/04/24 08:51:22;;;;;;;7.73;3.87;;;9.90;80.60;;;;;;4167852;28;20218;-78
2021/04/24 08:53:23;;;;;;;10.70;4.37;;;10.00;81.00;;;;;;4162069;28;20859;-79
2021/04/24 08:55:28;;;;;;;8.50;3.93;;;10.00;77.80;;;;;;4160149;28;20215;-79
2021/04/24 08:57:30;;;;;;;8.87;4.30;;;10.20;78.10;;;;;;4162234;28;20381;-79
2021/04/24 08:59:32;;;;;;;10.43;4.63;;;10.40;77.00;;;;;;4160066;28;20211;-79
2021/04/24 09:01:34;;;;;;;11.30;5.10;;;10.60;75.50;;;;;;4163046;28;20215;-79
2021/04/24 09:03:35;;;;;;;11.60;4.77;;;10.70;74.70;;;;;;4161414;28;20215;-79
2021/04/24 09:05:37;;;;;;;9.73;4.57;;;10.80;73.20;;;;;;4161194;28;20207;-79
2021/04/24 09:07:39;;;;;;;7.90;3.70;;;11.00;72.50;;;;;;4160627;28;20233;-79
2021/04/24 09:09:40;;;;;;;8.50;4.20;;;11.10;70.00;;;;;;4156782;28;20212;-76
2021/04/24 09:11:43;;;;;;;7.50;4.17;;;11.30;69.10;;;;;;4160230;28;20216;-76
2021/04/24 09:13:58;;;;;;;9.53;4.40;;;11.30;67.90;;;;;;4157644;28;20215;-79
2021/04/24 09:16:00;;;;;;;10.77;4.63;;;11.40;64.50;;;;;;4159555;28;20208;-80
2021/04/24 09:18:03;;;;;;;8.83;4.03;;;11.20;63.90;;;;;;4173667;28;20241;-80
2021/04/24 09:20:07;;;;;;;7.43;4.37;;;11.10;63.00;;;;;;4170680;28;20223;-80
2021/04/24 09:22:17;;;;;;;7.87;4.20;;;10.90;64.70;;;;;;4163785;28;20212;-80
2021/04/24 09:24:33;;;;;;;6.93;3.70;;;10.90;66.10;;;;;;4165318;28;20596;-80
2021/04/24 09:26:34;;;;;;;8.57;4.30;;;11.00;64.90;;;;;;4162917;28;20480;-80
2021/04/24 09:28:39;;;;;;;10.83;3.80;;;11.10;61.00;;;;;;4167796;28;20235;-80
2021/04/24 09:30:41;;;;;;;7.93;4.10;;;11.10;59.60;;;;;;4168931;28;20212;-80
2021/04/24 09:32:43;;;;;;;6.33;3.60;;;11.10;59.20;;;;;;4164619;28;20698;-80
2021/04/24 09:34:47;;;;;;;10.17;4.17;;;11.20;60.30;;;;;;4161694;28;20210;-80
2021/04/24 09:36:54;;;;;;;7.00;3.97;;;11.30;59.80;;;;;;4163409;28;20345;-80
2021/04/24 09:38:56;;;;;;;8.87;4.10;;;11.40;59.50;;;;;;4164084;28;20218;-79
2021/04/24 09:41:17;;;;;;;10.87;4.40;;;11.60;59.60;;;;;;4162176;28;20240;-77
2021/04/24 09:43:18;;;;;;;7.73;3.87;;;11.80;57.70;;;;;;4158699;28;20352;-77
2021/04/24 09:45:29;;;;;;;8.63;4.00;;;11.90;57.60;;;;;;4161304;28;20252;-77
2021/04/24 09:47:43;;;;;;;25.73;11.83;;;12.10;56.80;;;;;;4163762;28;20236;-79
2021/04/24 09:49:44;;;;;;;41.80;20.77;;;12.30;55.70;;;;;;4157953;28;20207;-76
2021/04/24 09:51:48;;;;;;;46.50;23.77;;;12.40;55.20;;;;;;4154554;28;20268;-76
2021/04/24 09:53:57;;;;;;;24.27;12.70;;;12.50;54.90;;;;;;4157059;28;20214;-76
2021/04/24 09:55:58;;;;;;;15.67;7.57;;;12.70;54.80;;;;;;4157994;28;20214;-75
2021/04/24 09:57:59;;;;;;;11.30;5.37;;;12.80;53.80;;;;;;4156715;28;20235;-74
2021/04/24 10:00:02;;;;;;;9.53;4.30;;;12.80;52.80;;;;;;4159107;28;20210;-74
2021/04/24 10:02:06;;;;;;;8.13;4.23;;;12.80;52.00;;;;;;4161919;28;20221;-74
2021/04/24 10:04:12;;;;;;;11.07;4.43;;;12.90;51.70;;;;;;4162287;28;20226;-76
2021/04/24 10:06:29;;;;;;;7.07;3.73;;;12.80;50.60;;;;;;4160909;28;20207;-76
2021/04/24 10:08:30;;;;;;;6.90;4.00;;;12.70;51.20;;;;;;4161730;28;20379;-76
2021/04/24 10:10:40;;;;;;;7.97;4.17;;;12.70;51.90;;;;;;4159281;28;20253;-76
2021/04/24 10:12:52;;;;;;;8.97;4.10;;;12.80;52.70;;;;;;4165340;28;20290;-74
2021/04/24 10:14:54;;;;;;;6.33;3.93;;;12.90;52.60;;;;;;4165446;28;20213;-76
2021/04/24 10:16:57;;;;;;;9.43;4.57;;;13.00;51.90;;;;;;4160036;28;20249;-75
2021/04/24 10:18:58;;;;;;;8.67;4.23;;;13.00;51.50;;;;;;4160763;28;20257;-75
2021/04/24 10:21:00;;;;;;;10.33;4.40;;;13.00;50.90;;;;;;4164150;28;20218;-74
2021/04/24 10:23:03;;;;;;;9.03;4.30;;;12.90;51.50;;;;;;4163350;28;20655;-74
2021/04/24 10:25:06;;;;;;;9.17;4.23;;;12.90;52.10;;;;;;4162318;28;20686;-74
2021/04/24 10:27:10;;;;;;;9.10;4.47;;;12.90;51.40;;;;;;4163014;28;20234;-75
2021/04/24 10:29:11;;;;;;;9.70;4.30;;;12.90;51.30;;;;;;4165359;28;20629;-74
2021/04/24 10:31:13;;;;;;;9.77;4.40;;;12.90;51.10;;;;;;4163091;28;20211;-74
2021/04/24 10:33:14;;;;;;;7.17;4.40;;;12.90;51.30;;;;;;4165355;28;20221;-75
2021/04/24 10:35:16;;;;;;;7.33;4.30;;;13.00;51.40;;;;;;4164725;28;20568;-75
2021/04/24 10:37:18;;;;;;;8.23;4.10;;;13.10;50.80;;;;;;4160756;28;20234;-74
2021/04/24 10:39:24;;;;;;;8.83;4.17;;;13.30;49.70;;;;;;4160460;28;20218;-74